createdAt,value
2022-10-19T05:40:00.413Z,12.62
2022-10-19T05:45:21.536Z,12.60
2022-10-19T05:50:53.244Z,12.60
2022-10-19T05:56:20.018Z,12.57
2022-10-19T06:01:41.002Z,12.51
2022-10-19T06:07:01.731Z,12.47
2022-10-19T06:12:24.969Z,12.49
2022-10-19T06:17:46.024Z,12.54
2022-10-19T06:23:07.957Z,12.64
2022-10-19T06:28:28.968Z,12.67
2022-10-19T06:33:49.911Z,12.64
2022-10-19T06:39:10.661Z,12.57
2022-10-19T06:44:31.661Z,12.67
2022-10-19T06:49:52.270Z,12.65
2022-10-19T06:55:13.348Z,12.51
2022-10-19T07:00:34.544Z,12.73
2022-10-19T07:05:59.814Z,12.84
2022-10-19T07:11:25.031Z,12.92
2022-10-19T07:16:46.021Z,12.94
2022-10-19T07:22:06.723Z,12.88
2022-10-19T07:27:27.807Z,12.84
2022-10-19T07:32:48.424Z,12.85
2022-10-19T07:38:09.499Z,12.91
2022-10-19T07:43:30.508Z,12.89
2022-10-19T07:48:52.166Z,12.96
2022-10-19T07:54:13.710Z,13.02
2022-10-19T07:59:34.868Z,13.05
2022-10-19T08:05:01.330Z,13.22
2022-10-19T08:10:25.187Z,14.33
2022-10-19T08:15:45.996Z,15.49
2022-10-19T08:21:07.098Z,16.34
2022-10-19T08:26:32.821Z,17.56
2022-10-19T08:31:54.409Z,18.59
2022-10-19T08:37:25.852Z,19.59
2022-10-19T08:43:17.956Z,20.50
2022-10-19T08:48:42.900Z,18.24
2022-10-19T08:54:12.496Z,18.21
2022-10-19T08:59:44.946Z,25.66
2022-10-19T09:05:30.127Z,23.55
2022-10-19T09:10:53.547Z,23.12
2022-10-19T09:16:17.560Z,22.86
2022-10-19T09:21:51.588Z,22.10
2022-10-19T09:27:21.717Z,19.52
2022-10-19T09:32:43.073Z,18.17
2022-10-19T09:38:05.655Z,18.29
2022-10-19T09:43:28.121Z,19.03
2022-10-19T09:48:51.959Z,19.55
2022-10-19T09:54:31.242Z,20.53
2022-10-19T09:59:55.573Z,19.41
2022-10-19T10:05:17.257Z,18.51
2022-10-19T10:10:42.618Z,17.52
2022-10-19T10:16:06.448Z,16.90
2022-10-19T10:21:34.710Z,17.00
2022-10-19T10:26:56.815Z,17.68
2022-10-19T10:32:20.170Z,17.88
2022-10-19T10:37:46.502Z,18.42
2022-10-19T10:43:20.680Z,18.94
2022-10-19T10:48:47.704Z,19.76
2022-10-19T10:54:24.083Z,18.55
2022-10-19T11:00:02.071Z,17.93
2022-10-19T11:05:27.253Z,17.88
2022-10-19T11:11:00.299Z,17.48
2022-10-19T11:16:26.030Z,18.57
2022-10-19T11:22:02.116Z,19.51
2022-10-19T11:27:54.499Z,18.06
2022-10-19T11:33:44.370Z,17.43
2022-10-19T11:39:42.036Z,17.68
2022-10-19T11:45:24.122Z,18.02
2022-10-19T11:51:16.801Z,17.60
2022-10-19T11:57:03.973Z,18.33
2022-10-19T12:02:54.607Z,18.60
2022-10-19T12:13:47.350Z,19.16
2022-10-19T12:19:16.530Z,19.60
2022-10-19T12:24:37.121Z,20.08
2022-10-19T12:30:06.621Z,19.68
2022-10-19T12:35:42.660Z,19.06
2022-10-19T12:41:13.558Z,19.17
2022-10-19T12:46:58.797Z,19.46
2022-10-19T12:52:40.318Z,19.82
2022-10-19T12:58:16.648Z,20.07
2022-10-19T13:03:41.246Z,20.22
2022-10-19T13:09:09.033Z,20.66
2022-10-19T13:15:04.365Z,20.96
2022-10-19T13:20:25.477Z,20.85
2022-10-19T13:25:46.385Z,20.71
2022-10-19T13:31:23.507Z,20.52
2022-10-19T13:37:02.071Z,20.52
2022-10-19T13:42:25.664Z,20.55
2022-10-19T13:47:55.072Z,20.51
2022-10-19T13:53:39.847Z,20.35
2022-10-19T13:59:19.658Z,20.34
2022-10-19T14:05:01.926Z,20.10
2022-10-19T14:10:28.289Z,19.67
2022-10-19T14:15:56.915Z,19.26
2022-10-19T14:21:30.528Z,18.98
2022-10-19T14:26:51.331Z,18.66
2022-10-19T14:32:12.763Z,18.23
2022-10-19T14:37:34.947Z,17.94
2022-10-19T14:42:58.655Z,17.50
2022-10-19T14:48:21.115Z,17.21
2022-10-19T14:53:54.593Z,16.97
2022-10-19T14:59:31.771Z,16.84
2022-10-19T15:05:09.383Z,16.52
2022-10-19T15:10:42.723Z,16.16
2022-10-19T15:16:03.892Z,15.94
2022-10-19T15:21:24.737Z,15.65
2022-10-19T15:27:01.791Z,15.30
2022-10-19T15:32:38.109Z,14.96
2022-10-19T15:38:24.933Z,14.63
2022-10-19T15:43:48.460Z,14.39
2022-10-19T15:49:15.475Z,14.18
2022-10-19T15:54:36.632Z,13.93
2022-10-19T16:00:00.222Z,13.74
2022-10-19T16:05:21.225Z,13.49
2022-10-19T16:10:42.380Z,13.27
2022-10-19T16:16:11.337Z,12.86
2022-10-19T16:21:35.683Z,12.59
2022-10-19T16:26:56.529Z,12.37
2022-10-19T16:32:17.183Z,12.25
2022-10-19T16:37:38.121Z,11.98
2022-10-19T16:43:00.479Z,11.74
2022-10-19T16:48:24.051Z,11.51
2022-10-19T16:53:44.845Z,11.42
2022-10-19T16:59:06.527Z,11.26
2022-10-19T17:04:27.283Z,11.09
2022-10-19T17:09:52.307Z,10.98
2022-10-19T17:15:41.574Z,10.84
2022-10-19T17:21:02.493Z,10.67
2022-10-19T17:26:35.887Z,10.62
2022-10-19T17:31:57.654Z,10.50
2022-10-19T17:37:18.567Z,10.29
2022-10-19T17:42:39.395Z,10.28
2022-10-19T17:48:00.223Z,10.25
2022-10-19T17:53:20.969Z,10.13
2022-10-19T17:58:42.674Z,10.02
2022-10-19T18:04:03.675Z,9.93
2022-10-19T18:09:24.655Z,9.77
2022-10-19T18:14:45.462Z,9.58
2022-10-19T18:20:07.010Z,9.49
2022-10-19T18:25:49.284Z,9.43
2022-10-19T18:31:13.681Z,9.37
2022-10-19T18:36:34.845Z,9.40
2022-10-19T18:41:55.832Z,9.21
2022-10-19T18:47:16.505Z,9.14
2022-10-19T18:52:39.281Z,9.01
2022-10-19T18:58:00.339Z,8.97
2022-10-19T19:03:25.202Z,8.79
2022-10-19T19:08:46.653Z,8.64
2022-10-19T19:14:14.451Z,8.53
2022-10-19T19:19:35.649Z,8.38
2022-10-19T19:24:56.409Z,8.32
2022-10-19T19:30:17.469Z,8.22
2022-10-19T19:35:45.159Z,8.15
2022-10-19T19:41:08.821Z,8.06
2022-10-19T19:46:30.257Z,7.95
2022-10-19T19:51:54.938Z,7.99
2022-10-19T19:57:16.138Z,7.95
2022-10-19T20:02:37.390Z,7.80
2022-10-19T20:07:58.618Z,7.70
2022-10-19T20:13:19.664Z,7.62
2022-10-19T20:18:41.694Z,7.47
2022-10-19T20:24:03.545Z,7.32
2022-10-19T20:29:24.619Z,7.29
2022-10-19T20:34:45.561Z,7.33
2022-10-19T20:40:08.795Z,7.17
2022-10-19T20:45:30.236Z,7.17
2022-10-19T20:50:50.628Z,7.07
2022-10-19T20:56:12.408Z,7.12
2022-10-19T21:01:34.981Z,7.15
2022-10-19T21:06:56.179Z,7.12
2022-10-19T21:12:17.014Z,6.95
2022-10-19T21:17:37.786Z,6.88
2022-10-19T21:22:58.614Z,6.86
2022-10-19T21:28:19.636Z,6.91
2022-10-19T21:33:40.612Z,6.92
2022-10-19T21:39:01.582Z,6.86
2022-10-19T21:44:23.205Z,6.69
2022-10-19T21:49:44.180Z,6.46
2022-10-19T21:55:05.139Z,6.50
